createdAt,value
2022-12-31T00:01:30.999Z,72.00
2022-12-31T00:03:57.669Z,72.27
2022-12-31T00:06:27.454Z,72.28
2022-12-31T00:08:55.002Z,73.25
2022-12-31T00:11:22.073Z,73.89
2022-12-31T00:13:48.709Z,73.33
2022-12-31T00:16:24.064Z,73.39
2022-12-31T00:18:52.159Z,72.99
2022-12-31T00:21:18.979Z,72.87
2022-12-31T00:23:45.645Z,71.85
2022-12-31T00:26:13.950Z,72.41
2022-12-31T00:28:41.022Z,72.74
2022-12-31T00:31:15.587Z,72.22
2022-12-31T00:33:42.461Z,72.20
2022-12-31T00:36:13.075Z,71.06
2022-12-31T00:38:40.552Z,72.31
2022-12-31T00:41:07.204Z,73.00
2022-12-31T00:43:34.061Z,73.70
2022-12-31T00:46:00.770Z,73.02
2022-12-31T00:48:27.576Z,73.32
2022-12-31T00:50:54.539Z,73.94
2022-12-31T00:53:21.375Z,73.07
2022-12-31T00:55:48.006Z,72.32
2022-12-31T00:58:14.757Z,71.98
2022-12-31T01:00:41.382Z,71.08
2022-12-31T01:03:08.068Z,70.60
2022-12-31T01:05:35.140Z,70.26
2022-12-31T01:08:01.850Z,70.35
2022-12-31T01:10:28.477Z,69.53
2022-12-31T01:12:55.191Z,69.09
2022-12-31T01:15:21.831Z,70.05
2022-12-31T01:17:48.539Z,69.42
2022-12-31T01:20:15.184Z,68.42
2022-12-31T01:22:41.829Z,68.94
2022-12-31T01:25:08.712Z,69.17
2022-12-31T01:27:35.346Z,69.32
2022-12-31T01:30:02.014Z,70.64
2022-12-31T01:32:28.673Z,69.85
2022-12-31T01:34:55.347Z,70.41
2022-12-31T01:37:22.000Z,70.53
2022-12-31T01:39:48.656Z,69.48
2022-12-31T01:42:15.285Z,69.58
2022-12-31T01:44:41.786Z,69.87
2022-12-31T01:47:13.893Z,69.58
2022-12-31T01:49:53.910Z,69.50
2022-12-31T01:52:31.370Z,69.30
2022-12-31T01:55:21.370Z,69.75
2022-12-31T01:57:51.920Z,69.06
2022-12-31T02:00:18.550Z,68.89
2022-12-31T02:02:45.405Z,68.79
2022-12-31T02:05:17.967Z,68.66
2022-12-31T02:07:44.640Z,69.31
2022-12-31T02:10:11.310Z,68.43
2022-12-31T02:12:37.992Z,69.46
2022-12-31T02:15:05.048Z,68.70
2022-12-31T02:17:43.309Z,68.71
2022-12-31T02:20:21.836Z,69.22
2022-12-31T02:23:12.057Z,69.00
2022-12-31T02:26:04.946Z,69.07
2022-12-31T02:29:08.418Z,69.09
2022-12-31T02:31:37.435Z,69.15
2022-12-31T02:34:07.896Z,69.28
2022-12-31T02:36:36.766Z,68.51
2022-12-31T02:39:04.154Z,68.07
2022-12-31T02:41:30.789Z,68.74
2022-12-31T02:43:57.442Z,68.36
2022-12-31T02:46:31.472Z,68.50
2022-12-31T02:49:12.317Z,68.08
2022-12-31T02:52:01.090Z,69.23
2022-12-31T02:54:32.037Z,70.59
2022-12-31T02:57:13.379Z,70.50
2022-12-31T02:59:50.295Z,69.73
2022-12-31T03:02:17.353Z,69.66
2022-12-31T03:04:52.106Z,69.70
2022-12-31T03:07:23.150Z,69.50
2022-12-31T03:09:50.233Z,69.04
2022-12-31T03:12:17.208Z,68.30
2022-12-31T03:14:43.847Z,68.06
2022-12-31T03:17:10.541Z,69.45
2022-12-31T03:19:37.257Z,68.79
2022-12-31T03:22:03.923Z,69.08
2022-12-31T03:24:30.688Z,69.37
2022-12-31T03:26:57.351Z,68.36
2022-12-31T03:29:23.974Z,68.77
2022-12-31T03:31:50.685Z,69.05
2022-12-31T03:34:17.370Z,68.01
2022-12-31T03:36:44.009Z,68.97
2022-12-31T03:39:10.785Z,69.84
2022-12-31T03:41:37.424Z,70.32
2022-12-31T03:44:04.061Z,69.00
2022-12-31T03:46:30.711Z,68.92
2022-12-31T03:48:57.348Z,69.40
2022-12-31T03:51:24.042Z,68.83
2022-12-31T03:53:50.692Z,68.63
2022-12-31T03:56:17.335Z,68.00
2022-12-31T03:58:45.036Z,67.80
2022-12-31T04:01:11.785Z,68.27
2022-12-31T04:03:38.468Z,67.33
2022-12-31T04:06:05.111Z,68.20
2022-12-31T04:08:31.745Z,68.16
2022-12-31T04:10:58.428Z,68.45
2022-12-31T04:13:25.085Z,68.69
2022-12-31T04:15:51.761Z,68.26
2022-12-31T04:18:18.447Z,69.12
2022-12-31T04:20:45.118Z,68.51
2022-12-31T04:23:11.763Z,68.47
2022-12-31T04:25:38.425Z,69.55
2022-12-31T04:28:05.096Z,69.87
2022-12-31T04:30:31.769Z,69.26
2022-12-31T04:32:58.423Z,70.22
2022-12-31T04:35:25.097Z,69.64
2022-12-31T04:37:51.763Z,69.07
2022-12-31T04:40:18.402Z,69.72
2022-12-31T04:42:45.042Z,68.72
2022-12-31T04:45:11.716Z,69.74
2022-12-31T04:47:38.370Z,69.41
2022-12-31T04:50:05.418Z,69.32
2022-12-31T04:52:34.616Z,69.66
2022-12-31T04:55:05.678Z,69.46
2022-12-31T04:57:32.313Z,68.79
2022-12-31T04:59:58.946Z,68.95
2022-12-31T05:02:25.757Z,67.95
2022-12-31T05:04:52.466Z,68.77
2022-12-31T05:07:19.138Z,69.96
2022-12-31T05:09:45.769Z,69.52
2022-12-31T05:12:12.395Z,69.82
2022-12-31T05:14:39.035Z,69.27
2022-12-31T05:17:05.714Z,70.25
2022-12-31T05:19:32.356Z,69.40
2022-12-31T05:21:59.009Z,69.88
2022-12-31T05:24:25.652Z,68.78
2022-12-31T05:26:52.289Z,69.62
2022-12-31T05:29:19.051Z,70.03
2022-12-31T05:31:45.726Z,70.08
2022-12-31T05:34:12.376Z,70.06
2022-12-31T05:36:39.009Z,69.61
2022-12-31T05:39:05.647Z,69.93
2022-12-31T05:41:32.307Z,70.32
2022-12-31T05:43:58.930Z,70.13
2022-12-31T05:46:25.601Z,70.38
2022-12-31T05:48:52.256Z,70.01
2022-12-31T05:51:18.913Z,70.30
2022-12-31T05:53:45.562Z,69.83
2022-12-31T05:56:12.232Z,69.75
2022-12-31T05:58:38.868Z,69.39
2022-12-31T06:01:05.567Z,69.49
2022-12-31T06:03:32.722Z,69.92
2022-12-31T06:06:01.161Z,69.83
2022-12-31T06:08:27.822Z,69.13
2022-12-31T06:10:54.480Z,69.75
2022-12-31T06:13:21.454Z,70.10
2022-12-31T06:15:48.113Z,69.53
2022-12-31T06:18:14.758Z,69.87
2022-12-31T06:20:41.413Z,68.77
2022-12-31T06:23:08.044Z,70.04
2022-12-31T06:25:35.093Z,69.74
2022-12-31T06:28:01.736Z,69.87
2022-12-31T06:30:28.399Z,70.36
2022-12-31T06:32:55.258Z,69.76
2022-12-31T06:35:22.207Z,69.70
2022-12-31T06:37:48.833Z,70.20
2022-12-31T06:40:15.503Z,70.14
2022-12-31T06:42:42.204Z,69.66
2022-12-31T06:45:09.043Z,70.58
2022-12-31T06:47:35.703Z,70.57
2022-12-31T06:50:02.352Z,71.09
2022-12-31T06:52:29.097Z,70.57
2022-12-31T06:54:55.942Z,70.62
2022-12-31T06:57:22.697Z,70.55
2022-12-31T06:59:49.615Z,70.53
2022-12-31T07:02:31.722Z,70.44
2022-12-31T07:04:58.592Z,70.45
2022-12-31T07:07:55.318Z,70.96
2022-12-31T07:10:34.883Z,70.40
2022-12-31T07:13:26.191Z,70.63
2022-12-31T07:16:28.149Z,69.98
2022-12-31T07:19:31.940Z,70.38
2022-12-31T07:21:59.519Z,70.55
2022-12-31T07:24:26.529Z,69.80
2022-12-31T07:27:30.729Z,70.42
2022-12-31T07:30:10.789Z,69.29
2022-12-31T07:32:56.125Z,69.40
2022-12-31T07:35:41.484Z,69.56
2022-12-31T07:38:11.478Z,69.04
2022-12-31T07:41:07.331Z,69.07
2022-12-31T07:43:47.397Z,69.23
2022-12-31T07:46:31.209Z,68.53
2022-12-31T07:48:58.394Z,69.05
2022-12-31T07:51:25.484Z,68.35
2022-12-31T07:54:13.673Z,69.10
2022-12-31T07:56:41.305Z,67.62
2022-12-31T07:59:24.677Z,67.92
2022-12-31T08:02:04.169Z,68.00
2022-12-31T08:04:39.876Z,67.19
2022-12-31T08:07:18.271Z,67.48
2022-12-31T08:10:00.024Z,67.33
2022-12-31T08:12:27.569Z,67.03
2022-12-31T08:14:54.307Z,66.79
2022-12-31T08:17:21.060Z,62.47
2022-12-31T08:19:47.993Z,58.99
2022-12-31T08:22:37.538Z,56.92
2022-12-31T08:25:14.776Z,51.81
2022-12-31T08:28:05.478Z,49.25
2022-12-31T08:30:50.378Z,48.87
2022-12-31T08:33:33.287Z,48.27
2022-12-31T08:36:14.640Z,49.04
2022-12-31T08:39:12.259Z,50.42
2022-12-31T08:41:42.876Z,52.26
2022-12-31T08:44:32.401Z,53.16
2022-12-31T08:47:09.244Z,53.94
2022-12-31T08:49:35.971Z,54.51
2022-12-31T08:52:02.834Z,55.42
2022-12-31T08:54:29.731Z,54.78
2022-12-31T08:57:14.432Z,54.40
2022-12-31T08:59:43.881Z,54.73
2022-12-31T09:02:10.493Z,54.70
2022-12-31T09:05:23.832Z,54.19
2022-12-31T09:08:16.504Z,53.42
2022-12-31T09:11:28.049Z,53.05
2022-12-31T09:14:28.693Z,52.90
2022-12-31T09:17:10.482Z,53.20
2022-12-31T09:19:37.194Z,52.80
2022-12-31T09:22:03.963Z,52.39
2022-12-31T09:24:30.886Z,51.04
2022-12-31T09:27:03.816Z,49.56
2022-12-31T09:29:55.439Z,49.21
2022-12-31T09:33:01.635Z,47.44
2022-12-31T09:35:47.286Z,46.76
2022-12-31T09:38:18.329Z,46.21
2022-12-31T09:40:47.934Z,46.12
2022-12-31T09:43:35.945Z,44.02
2022-12-31T09:46:20.445Z,43.96
2022-12-31T09:49:03.895Z,44.39
2022-12-31T09:51:32.830Z,43.97
2022-12-31T09:54:22.795Z,44.73
2022-12-31T09:57:08.736Z,45.36
2022-12-31T09:59:40.963Z,46.53
2022-12-31T10:02:19.996Z,46.38
2022-12-31T10:04:56.449Z,47.81
2022-12-31T10:07:35.108Z,48.54
2022-12-31T10:10:15.214Z,48.47
2022-12-31T10:12:58.183Z,48.57
2022-12-31T10:15:48.361Z,48.85
2022-12-31T10:18:33.209Z,49.82
2022-12-31T10:21:10.304Z,49.80
2022-12-31T10:23:47.814Z,51.07
2022-12-31T10:26:17.272Z,50.74
2022-12-31T10:28:54.000Z,51.13
2022-12-31T10:31:41.563Z,51.81
2022-12-31T10:34:15.330Z,52.15
2022-12-31T10:36:55.389Z,52.34
2022-12-31T10:39:41.117Z,52.02
2022-12-31T10:42:29.025Z,52.35
2022-12-31T10:45:23.536Z,53.27
2022-12-31T10:48:18.437Z,53.37
2022-12-31T10:50:57.461Z,53.27
2022-12-31T10:53:24.012Z,53.08
2022-12-31T10:56:19.694Z,53.52
2022-12-31T10:58:52.117Z,53.40
2022-12-31T11:01:21.587Z,53.79
2022-12-31T11:03:50.909Z,53.22
2022-12-31T11:06:24.431Z,52.86
2022-12-31T11:09:00.081Z,53.89
2022-12-31T11:12:05.013Z,54.08
2022-12-31T11:14:41.596Z,54.53
2022-12-31T11:17:21.633Z,54.81
2022-12-31T11:19:57.828Z,54.17
2022-12-31T11:22:47.494Z,54.61
2022-12-31T11:25:46.598Z,54.31
2022-12-31T11:28:43.996Z,54.55
2022-12-31T11:31:22.644Z,55.00
2022-12-31T11:34:03.660Z,54.48
2022-12-31T11:36:33.273Z,53.95
2022-12-31T11:39:31.340Z,54.68
2022-12-31T11:42:23.705Z,56.32
2022-12-31T11:45:12.736Z,56.71
2022-12-31T11:48:29.133Z,56.49
2022-12-31T11:51:06.900Z,56.51
2022-12-31T11:53:42.458Z,56.83
2022-12-31T11:56:19.776Z,57.18
2022-12-31T11:58:48.939Z,57.11
2022-12-31T12:01:46.441Z,57.18
2022-12-31T12:04:13.072Z,56.77
2022-12-31T12:06:40.007Z,56.84
2022-12-31T12:09:10.499Z,55.96
2022-12-31T12:11:43.221Z,55.40
2022-12-31T12:14:26.993Z,55.81
2022-12-31T12:16:57.850Z,55.74
2022-12-31T12:19:31.535Z,56.07
2022-12-31T12:21:58.240Z,56.32
2022-12-31T12:24:28.851Z,56.41
2022-12-31T12:26:55.863Z,54.98
2022-12-31T12:29:33.102Z,56.41
2022-12-31T12:32:02.559Z,56.60
2022-12-31T12:34:36.822Z,56.29
2022-12-31T12:37:03.470Z,55.82
2022-12-31T12:39:32.323Z,55.81
2022-12-31T12:42:10.635Z,55.97
2022-12-31T12:44:37.343Z,56.94
2022-12-31T12:47:06.049Z,55.09
2022-12-31T12:49:40.598Z,55.33
2022-12-31T12:52:29.110Z,55.70
2022-12-31T12:55:07.452Z,56.37
2022-12-31T12:57:34.578Z,56.22
2022-12-31T13:00:05.525Z,56.14
2022-12-31T13:02:35.149Z,54.85
2022-12-31T13:05:25.955Z,56.65
2022-12-31T13:08:19.612Z,55.57
2022-12-31T13:10:49.052Z,55.32
2022-12-31T13:13:30.730Z,55.86
2022-12-31T13:16:22.410Z,55.46
2022-12-31T13:19:11.395Z,54.58
2022-12-31T13:21:50.898Z,54.30
2022-12-31T13:24:44.283Z,54.28
2022-12-31T13:27:29.518Z,54.30
2022-12-31T13:29:59.133Z,54.49
2022-12-31T13:32:42.919Z,54.95
2022-12-31T13:35:24.592Z,54.64
2022-12-31T13:37:51.489Z,54.78
2022-12-31T13:40:21.769Z,54.16
2022-12-31T13:42:53.808Z,53.91
2022-12-31T13:45:47.330Z,53.01
2022-12-31T13:48:17.401Z,53.89
2022-12-31T13:50:55.002Z,52.16
2022-12-31T13:53:38.737Z,53.96
2022-12-31T13:56:13.226Z,53.69
2022-12-31T13:58:47.430Z,52.99
2022-12-31T14:01:33.418Z,51.00
2022-12-31T14:04:17.087Z,53.88
2022-12-31T14:07:10.661Z,54.22
2022-12-31T14:09:37.353Z,55.05
2022-12-31T14:12:37.740Z,55.18
2022-12-31T14:15:10.767Z,55.75
2022-12-31T14:18:11.363Z,54.95
2022-12-31T14:20:57.104Z,55.72
2022-12-31T14:23:29.590Z,56.53
2022-12-31T14:26:08.724Z,57.03
2022-12-31T14:28:47.674Z,56.27
2022-12-31T14:31:46.053Z,57.76
2022-12-31T14:34:31.950Z,56.37
2022-12-31T14:37:01.249Z,56.76
2022-12-31T14:39:54.996Z,58.11
2022-12-31T14:42:36.446Z,59.14
2022-12-31T14:45:15.339Z,60.06
2022-12-31T14:47:52.696Z,59.94
2022-12-31T14:50:24.577Z,60.35
2022-12-31T14:53:00.124Z,60.67
2022-12-31T14:55:34.385Z,60.46
2022-12-31T14:58:27.103Z,59.53
2022-12-31T15:01:02.247Z,59.98
2022-12-31T15:03:31.774Z,59.94
2022-12-31T15:06:02.323Z,59.86
2022-12-31T15:08:35.420Z,60.77
2022-12-31T15:11:04.842Z,59.85
2022-12-31T15:14:03.437Z,59.56
2022-12-31T15:16:36.845Z,61.17
2022-12-31T15:19:18.551Z,59.52
2022-12-31T15:21:56.253Z,60.68
2022-12-31T15:24:26.579Z,61.57
2022-12-31T15:26:57.544Z,61.44
2022-12-31T15:29:33.731Z,61.66
2022-12-31T15:32:02.381Z,61.93
2022-12-31T15:34:33.114Z,62.28
2022-12-31T15:37:01.690Z,62.70
2022-12-31T15:39:31.167Z,63.04
2022-12-31T15:44:55.175Z,63.62
2022-12-31T15:47:29.084Z,62.81
2022-12-31T15:49:56.001Z,61.40
2022-12-31T15:52:41.792Z,61.59
2022-12-31T15:55:09.003Z,61.71
2022-12-31T15:57:40.197Z,60.26
2022-12-31T16:00:18.465Z,60.67
2022-12-31T16:02:45.283Z,61.47
2022-12-31T16:05:25.159Z,61.36
2022-12-31T16:07:55.481Z,61.52
2022-12-31T16:10:31.709Z,61.13
2022-12-31T16:12:58.406Z,60.81
2022-12-31T16:15:27.203Z,61.03
2022-12-31T16:18:09.544Z,60.85
2022-12-31T16:20:41.433Z,60.72
2022-12-31T16:23:23.122Z,59.82
2022-12-31T16:25:50.546Z,59.55
2022-12-31T16:28:18.967Z,60.00
2022-12-31T16:30:45.665Z,60.31
2022-12-31T16:33:14.122Z,60.13
2022-12-31T16:35:40.812Z,60.73
2022-12-31T16:38:17.758Z,60.48
2022-12-31T16:41:02.530Z,60.44
2022-12-31T16:43:41.499Z,60.59
2022-12-31T16:46:17.275Z,61.07
2022-12-31T16:48:54.371Z,60.80
2022-12-31T16:51:22.330Z,61.08
2022-12-31T16:53:49.147Z,60.68
2022-12-31T16:56:38.514Z,60.96
2022-12-31T16:59:07.559Z,60.53
2022-12-31T17:01:34.523Z,60.83
2022-12-31T17:04:04.069Z,61.18
2022-12-31T17:06:30.736Z,61.12
2022-12-31T17:08:57.247Z,60.74
2022-12-31T17:11:42.639Z,60.95
2022-12-31T17:14:09.142Z,61.28
2022-12-31T17:17:02.067Z,61.31
2022-12-31T17:19:42.678Z,60.63
2022-12-31T17:22:13.739Z,60.82
2022-12-31T17:24:40.383Z,60.27
2022-12-31T17:27:07.769Z,59.74
2022-12-31T17:29:34.492Z,59.52
2022-12-31T17:32:19.227Z,59.85
2022-12-31T17:34:49.744Z,60.24
2022-12-31T17:37:18.678Z,61.38
2022-12-31T17:39:50.039Z,60.08
2022-12-31T17:42:28.705Z,60.50
2022-12-31T17:44:57.037Z,59.95
2022-12-31T17:47:23.695Z,60.20
2022-12-31T17:49:50.368Z,59.98
2022-12-31T17:52:17.003Z,60.18
2022-12-31T17:54:43.637Z,60.99
2022-12-31T17:57:26.741Z,62.21
2022-12-31T17:59:53.628Z,61.90
2022-12-31T18:02:20.343Z,62.70
2022-12-31T18:04:47.439Z,62.42
2022-12-31T18:07:14.095Z,62.15
2022-12-31T18:09:40.852Z,61.86
2022-12-31T18:12:07.555Z,61.22
2022-12-31T18:14:34.253Z,60.99
2022-12-31T18:17:00.917Z,61.54
2022-12-31T18:20:02.712Z,62.10
2022-12-31T18:22:15.347Z,61.99
2022-12-31T18:24:42.705Z,62.57
2022-12-31T18:27:19.016Z,62.65
2022-12-31T18:29:45.684Z,63.01
2022-12-31T18:32:42.750Z,62.91
2022-12-31T18:35:40.726Z,63.28
2022-12-31T18:38:06.992Z,63.64
2022-12-31T18:40:33.614Z,63.97
2022-12-31T18:43:04.873Z,63.77
2022-12-31T18:45:32.017Z,63.96
2022-12-31T18:47:58.670Z,64.19
2022-12-31T18:50:25.291Z,64.09
2022-12-31T18:52:51.936Z,63.93
2022-12-31T18:55:32.413Z,63.65
2022-12-31T18:57:59.084Z,64.02
2022-12-31T19:00:25.728Z,63.26
2022-12-31T19:02:52.455Z,63.95
2022-12-31T19:05:46.151Z,63.54
2022-12-31T19:08:12.779Z,63.14
2022-12-31T19:10:42.398Z,63.56
2022-12-31T19:13:18.580Z,63.42
2022-12-31T19:15:51.919Z,63.72
2022-12-31T19:18:18.690Z,64.43
2022-12-31T19:20:45.387Z,63.09
2022-12-31T19:23:16.502Z,63.22
2022-12-31T19:25:43.505Z,63.06
2022-12-31T19:28:26.540Z,63.38
2022-12-31T19:30:53.181Z,63.59
2022-12-31T19:33:20.028Z,63.68
2022-12-31T19:35:46.976Z,63.26
2022-12-31T19:38:21.959Z,63.73
2022-12-31T19:40:49.103Z,63.39
2022-12-31T19:43:16.916Z,63.46
2022-12-31T19:45:43.776Z,63.53
2022-12-31T19:48:14.412Z,62.89
2022-12-31T19:50:46.775Z,62.80
2022-12-31T19:53:17.834Z,62.84
2022-12-31T19:55:44.519Z,62.64
2022-12-31T19:58:21.707Z,63.01
2022-12-31T20:00:55.635Z,62.57
2022-12-31T20:03:25.109Z,62.83
2022-12-31T20:05:51.790Z,62.68
2022-12-31T20:08:18.471Z,62.84
2022-12-31T20:10:45.125Z,62.79
2022-12-31T20:13:11.773Z,62.93
2022-12-31T20:15:40.042Z,62.57
2022-12-31T20:18:06.689Z,63.13
2022-12-31T20:20:33.335Z,63.18
2022-12-31T20:23:02.901Z,62.83
2022-12-31T20:25:30.000Z,62.98
2022-12-31T20:27:56.668Z,63.06
2022-12-31T20:30:23.381Z,63.22
2022-12-31T20:32:52.475Z,63.29
2022-12-31T20:35:19.786Z,63.33
2022-12-31T20:37:46.426Z,62.50
2022-12-31T20:40:13.055Z,63.05
2022-12-31T20:42:43.281Z,63.08
2022-12-31T20:45:16.039Z,63.66
2022-12-31T20:47:42.683Z,64.07
2022-12-31T20:50:12.909Z,64.28
2022-12-31T20:52:42.790Z,64.37
2022-12-31T20:55:12.871Z,63.96
2022-12-31T20:57:40.158Z,64.92
2022-12-31T21:00:07.232Z,64.26
2022-12-31T21:02:42.778Z,64.17
2022-12-31T21:05:10.247Z,63.75
2022-12-31T21:07:37.022Z,63.84
2022-12-31T21:10:04.195Z,64.21
2022-12-31T21:12:30.861Z,64.99
2022-12-31T21:14:57.515Z,65.17
2022-12-31T21:17:24.149Z,64.75
2022-12-31T21:19:51.474Z,65.39
2022-12-31T21:22:18.115Z,65.39
2022-12-31T21:24:44.741Z,65.58
2022-12-31T21:27:11.375Z,65.07
2022-12-31T21:29:55.734Z,66.02
2022-12-31T21:32:24.633Z,65.34
2022-12-31T21:35:14.444Z,66.00
2022-12-31T21:37:58.195Z,65.94
2022-12-31T21:40:24.645Z,65.69
2022-12-31T21:42:51.290Z,66.52
2022-12-31T21:45:17.928Z,66.40
2022-12-31T21:47:47.635Z,67.18
2022-12-31T21:50:14.593Z,66.90
2022-12-31T21:52:41.248Z,66.34
2022-12-31T21:55:08.276Z,66.71
2022-12-31T21:57:59.034Z,66.65
2022-12-31T22:00:41.958Z,66.22
2022-12-31T22:03:09.949Z,66.36
2022-12-31T22:05:36.760Z,66.56
2022-12-31T22:08:03.511Z,66.53
2022-12-31T22:10:36.957Z,66.30
2022-12-31T22:13:03.987Z,65.22
2022-12-31T22:15:30.661Z,65.97
2022-12-31T22:17:57.286Z,65.22
2022-12-31T22:20:28.305Z,65.19
2022-12-31T22:22:55.430Z,65.45
2022-12-31T22:25:22.087Z,64.93
2022-12-31T22:28:04.459Z,65.89
2022-12-31T22:30:35.371Z,65.07
2022-12-31T22:33:02.029Z,65.51
2022-12-31T22:35:31.226Z,64.61
2022-12-31T22:38:01.700Z,64.51
2022-12-31T22:40:33.269Z,65.32
2022-12-31T22:42:59.932Z,65.73
2022-12-31T22:45:26.554Z,66.02
2022-12-31T22:47:53.230Z,66.09
2022-12-31T22:50:19.865Z,66.45
2022-12-31T22:52:46.609Z,66.90
2022-12-31T22:55:13.244Z,66.12
2022-12-31T22:57:39.893Z,66.56
2022-12-31T23:00:07.358Z,67.29
2022-12-31T23:02:38.402Z,66.66
2022-12-31T23:05:15.344Z,66.83
2022-12-31T23:10:10.349Z,67.29
2022-12-31T23:12:37.014Z,66.41
2022-12-31T23:15:08.918Z,67.24
2022-12-31T23:17:35.607Z,67.00
2022-12-31T23:20:05.617Z,66.85
2022-12-31T23:22:32.343Z,67.50
2022-12-31T23:24:59.028Z,66.19
2022-12-31T23:27:25.655Z,66.23
2022-12-31T23:29:52.426Z,67.10
2022-12-31T23:32:19.065Z,67.35
2022-12-31T23:34:46.063Z,67.03
2022-12-31T23:37:13.479Z,67.25
2022-12-31T23:39:40.157Z,67.44
2022-12-31T23:42:06.779Z,67.37
2022-12-31T23:44:33.431Z,67.23
2022-12-31T23:47:00.145Z,66.86
2022-12-31T23:49:26.857Z,67.35
2022-12-31T23:51:53.504Z,67.21
2022-12-31T23:54:20.183Z,67.47
2022-12-31T23:56:46.854Z,67.78
2022-12-31T23:59:13.531Z,67.93
